Time;durP1;ratioP1;P1;durP2;ratioP2;P2;SDS_P1;SDS_P2;PMS_P1;PMS_P2;Temp;Humidity;BMP_temperature;BMP_pressure;BME280_temperature;BME280_humidity;BME280_pressure;Samples;Min_cycle;Max_cycle;Signal;HPM_P1;HPM_P2
2022/04/23 05:00:05;;;;;;;16.57;15.23;;;11.60;97.20;;;;;;1727803;28;20180;-75
2022/04/23 05:00:56;;;;;;;18.33;16.63;;;11.70;97.20;;;;;;1727885;28;20710;-75
2022/04/23 05:01:48;;;;;;;17.25;15.77;;;11.70;97.20;;;;;;1727834;28;20197;-74
2022/04/23 05:02:39;;;;;;;16.73;15.18;;;11.70;97.20;;;;;;1727756;28;20232;-75
2022/04/23 05:03:31;;;;;;;17.33;15.82;;;11.80;97.20;;;;;;1727742;28;20221;-75
2022/04/23 05:04:21;;;;;;;15.98;14.68;;;11.80;97.20;;;;;;1727727;28;20235;-75
2022/04/23 05:05:13;;;;;;;17.10;15.40;;;11.90;97.20;;;;;;1727774;28;20200;-75
2022/04/23 05:06:04;;;;;;;16.95;15.35;;;11.90;97.20;;;;;;1727695;28;20208;-75
2022/04/23 05:06:55;;;;;;;17.83;16.00;;;12.00;97.20;;;;;;1727811;28;20219;-75
2022/04/23 05:07:46;;;;;;;16.88;15.52;;;12.00;97.20;;;;;;1727095;28;20230;-75
2022/04/23 05:08:38;;;;;;;18.13;16.43;;;12.00;97.20;;;;;;1727391;28;20216;-75
2022/04/23 05:09:29;;;;;;;16.33;14.93;;;12.10;97.20;;;;;;1727638;28;20856;-75
2022/04/23 05:10:21;;;;;;;17.30;15.83;;;12.20;97.20;;;;;;1727716;28;20625;-75
2022/04/23 05:11:12;;;;;;;17.35;15.52;;;12.20;97.20;;;;;;1727772;28;20236;-75
2022/04/23 05:12:04;;;;;;;17.33;15.83;;;12.20;97.20;;;;;;1727735;28;20286;-75
2022/04/23 05:12:54;;;;;;;18.55;16.95;;;12.30;97.20;;;;;;1727533;28;20332;-75
2022/04/23 05:13:46;;;;;;;17.10;15.63;;;12.30;97.20;;;;;;1726499;28;20287;-75
2022/04/23 05:14:37;;;;;;;16.08;14.77;;;12.30;97.20;;;;;;1720921;28;20252;-75
2022/04/23 05:15:30;;;;;;;16.70;15.20;;;12.40;97.20;;;;;;1720936;28;20209;-75
2022/04/23 05:16:21;;;;;;;16.38;15.00;;;12.40;97.20;;;;;;1720882;28;20236;-75
2022/04/23 05:17:12;;;;;;;15.97;14.67;;;12.40;97.20;;;;;;1720939;28;20200;-75
2022/04/23 05:18:03;;;;;;;17.02;15.52;;;12.40;97.20;;;;;;1727172;28;20239;-75
2022/04/23 05:18:55;;;;;;;16.73;15.32;;;12.40;97.20;;;;;;1727719;28;20196;-75
2022/04/23 05:19:46;;;;;;;16.65;15.25;;;12.40;97.20;;;;;;1722584;28;20706;-75
2022/04/23 05:20:38;;;;;;;15.90;14.60;;;12.40;97.20;;;;;;1720966;28;20575;-75
2022/04/23 05:21:29;;;;;;;16.45;15.05;;;12.40;97.20;;;;;;1720878;28;20236;-75
2022/04/23 05:22:20;;;;;;;16.20;14.90;;;12.40;97.20;;;;;;1721006;28;20201;-75
2022/04/23 05:23:11;;;;;;;16.75;15.35;;;12.50;97.20;;;;;;1720853;28;20623;-75
2022/04/23 05:24:06;;;;;;;16.60;15.20;;;12.50;97.20;;;;;;1720879;28;20589;-75
2022/04/23 05:24:57;;;;;;;16.10;14.65;;;12.50;97.20;;;;;;1721035;28;20205;-75
2022/04/23 05:25:48;;;;;;;17.43;15.93;;;12.50;97.20;;;;;;1720851;28;20232;-75
2022/04/23 05:26:39;;;;;;;15.18;13.88;;;12.50;97.20;;;;;;1720847;28;20436;-75
2022/04/23 05:27:31;;;;;;;16.73;15.23;;;12.50;97.20;;;;;;1722651;28;20201;-75
2022/04/23 05:28:22;;;;;;;15.35;13.93;;;12.50;97.20;;;;;;1727258;28;20873;-75
2022/04/23 05:29:14;;;;;;;17.38;15.77;;;12.50;97.20;;;;;;1727466;28;20319;-75
2022/04/23 05:30:06;;;;;;;16.80;15.40;;;12.50;97.20;;;;;;1727582;28;20698;-75
2022/04/23 05:30:59;;;;;;;16.55;14.95;;;12.50;97.20;;;;;;1727626;28;20206;-75
2022/04/23 05:31:50;;;;;;;16.35;14.80;;;12.50;97.20;;;;;;1727531;28;20224;-74
2022/04/23 05:32:41;;;;;;;16.10;14.80;;;12.50;97.20;;;;;;1727533;28;20203;-75
2022/04/23 05:33:32;;;;;;;16.33;14.93;;;12.50;97.20;;;;;;1727652;28;20250;-75
2022/04/23 05:34:28;;;;;;;17.70;16.20;;;12.50;97.20;;;;;;1727508;28;20204;-75
2022/04/23 05:35:19;;;;;;;16.63;15.32;;;12.50;97.20;;;;;;1727627;28;20204;-75
2022/04/23 05:36:11;;;;;;;15.93;14.63;;;12.50;97.20;;;;;;1727553;28;20266;-75
2022/04/23 05:37:02;;;;;;;16.73;15.32;;;12.50;97.20;;;;;;1727564;28;20200;-75
2022/04/23 05:37:54;;;;;;;16.85;15.45;;;12.50;97.20;;;;;;1725371;28;20200;-75
2022/04/23 05:38:45;;;;;;;16.15;14.90;;;12.60;97.20;;;;;;1720465;28;20213;-75
2022/04/23 05:39:37;;;;;;;15.73;14.30;;;12.60;97.20;;;;;;1720660;28;20208;-75
2022/04/23 05:40:28;;;;;;;16.05;14.65;;;12.60;97.20;;;;;;1720763;28;20583;-75
2022/04/23 05:41:20;;;;;;;16.87;15.17;;;12.60;97.20;;;;;;1720798;28;20201;-75
2022/04/23 05:42:11;;;;;;;16.58;15.18;;;12.60;97.20;;;;;;1720923;28;20534;-75
2022/04/23 05:43:02;;;;;;;15.47;14.23;;;12.70;97.20;;;;;;1720716;28;20419;-75
2022/04/23 05:43:53;;;;;;;15.75;14.35;;;12.70;97.20;;;;;;1720852;28;20638;-75
2022/04/23 05:44:45;;;;;;;16.13;14.73;;;12.70;97.20;;;;;;1722531;28;20556;-75
2022/04/23 05:45:35;;;;;;;16.15;14.85;;;12.70;97.20;;;;;;1727539;28;20587;-75
2022/04/23 05:46:29;;;;;;;15.83;14.43;;;12.70;97.20;;;;;;1727522;28;20582;-75
2022/04/23 05:47:20;;;;;;;15.85;14.38;;;12.80;97.20;;;;;;1726861;28;20231;-75
2022/04/23 05:48:12;;;;;;;15.25;13.95;;;12.80;97.20;;;;;;1726983;28;20219;-75
2022/04/23 05:49:03;;;;;;;16.67;15.20;;;12.80;97.20;;;;;;1727330;28;20220;-75
2022/04/23 05:49:55;;;;;;;16.47;14.90;;;12.80;97.20;;;;;;1724766;28;20208;-75
2022/04/23 05:50:45;;;;;;;15.07;13.85;;;12.80;97.20;;;;;;1727189;28;20196;-75
2022/04/23 05:51:37;;;;;;;16.43;15.03;;;12.90;97.20;;;;;;1727410;28;20198;-75
2022/04/23 05:52:28;;;;;;;16.23;14.82;;;12.90;97.20;;;;;;1727276;28;20575;-75
2022/04/23 05:53:19;;;;;;;16.00;14.50;;;12.90;97.20;;;;;;1727401;28;20220;-75
2022/04/23 05:54:10;;;;;;;15.38;13.98;;;12.90;97.20;;;;;;1727506;28;20235;-75
2022/04/23 05:55:02;;;;;;;14.77;13.57;;;12.90;97.20;;;;;;1727518;28;20200;-75
2022/04/23 05:55:55;;;;;;;16.58;15.07;;;12.90;97.20;;;;;;1727398;28;20395;-75
2022/04/23 05:56:46;;;;;;;15.20;13.90;;;12.90;97.20;;;;;;1727440;28;20200;-75
2022/04/23 05:57:37;;;;;;;15.65;14.35;;;12.90;97.20;;;;;;1727066;28;20204;-75
2022/04/23 05:58:29;;;;;;;14.35;13.13;;;12.90;97.20;;;;;;1727113;28;20262;-75
2022/04/23 05:59:20;;;;;;;16.35;14.95;;;12.90;97.20;;;;;;1727410;28;20197;-75
2022/04/23 06:00:12;;;;;;;15.87;14.47;;;12.90;97.20;;;;;;1727480;28;20204;-75
2022/04/23 06:01:03;;;;;;;15.85;14.45;;;12.90;97.20;;;;;;1727294;28;20246;-75
2022/04/23 06:01:56;;;;;;;14.90;13.60;;;12.90;97.20;;;;;;1727513;28;20196;-75
2022/04/23 06:02:47;;;;;;;14.73;13.50;;;12.90;97.20;;;;;;1727416;28;20201;-75
2022/04/23 06:03:41;;;;;;;14.83;13.47;;;12.90;97.20;;;;;;1727417;28;20232;-75
2022/04/23 06:04:32;;;;;;;15.40;13.95;;;13.00;97.20;;;;;;1727498;28;20205;-75
2022/04/23 06:05:24;;;;;;;14.35;13.15;;;13.00;97.20;;;;;;1727343;28;20668;-75
2022/04/23 06:06:15;;;;;;;14.77;13.52;;;13.00;97.20;;;;;;1727221;28;20224;-75
2022/04/23 06:07:07;;;;;;;15.07;13.77;;;13.00;97.20;;;;;;1727435;28;20211;-75
2022/04/23 06:07:58;;;;;;;15.25;13.95;;;13.00;97.20;;;;;;1726667;28;20205;-75
2022/04/23 06:08:49;;;;;;;15.60;14.30;;;13.00;97.20;;;;;;1727069;28;20208;-75
2022/04/23 06:09:41;;;;;;;15.47;14.17;;;13.00;97.20;;;;;;1727304;28;20241;-75
2022/04/23 06:10:31;;;;;;;14.25;13.05;;;13.00;97.20;;;;;;1727041;28;20674;-75
2022/04/23 06:11:23;;;;;;;14.50;13.30;;;13.00;97.20;;;;;;1727235;28;20665;-75
2022/04/23 06:12:14;;;;;;;16.67;15.27;;;13.00;97.20;;;;;;1727233;28;20678;-75
2022/04/23 06:13:08;;;;;;;15.00;13.70;;;13.00;97.20;;;;;;1727040;28;20718;-75
2022/04/23 06:13:59;;;;;;;16.02;14.65;;;13.10;97.20;;;;;;1727266;28;20212;-75
2022/04/23 06:14:51;;;;;;;16.03;14.67;;;13.10;97.20;;;;;;1726684;28;20226;-75
2022/04/23 06:15:42;;;;;;;14.88;13.57;;;13.10;97.20;;;;;;1725728;28;20279;-75
2022/04/23 06:16:34;;;;;;;14.30;13.20;;;13.10;97.20;;;;;;1727237;28;20193;-76
2022/04/23 06:17:28;;;;;;;15.13;13.82;;;13.10;97.20;;;;;;1727261;28;20659;-75
2022/04/23 06:18:20;;;;;;;14.73;13.52;;;13.10;97.20;;;;;;1726871;28;20666;-75
2022/04/23 06:19:11;;;;;;;14.98;13.77;;;13.10;97.20;;;;;;1727200;28;20283;-75
2022/04/23 06:20:05;;;;;;;16.13;13.97;;;13.10;97.20;;;;;;1727447;28;20232;-75
2022/04/23 06:20:56;;;;;;;14.98;13.65;;;13.10;97.20;;;;;;1727335;28;20471;-75
2022/04/23 06:21:47;;;;;;;15.90;14.40;;;13.20;97.20;;;;;;1727406;28;20279;-75
2022/04/23 06:22:38;;;;;;;15.35;14.00;;;13.20;97.20;;;;;;1727069;28;20208;-75
2022/04/23 06:23:30;;;;;;;14.30;13.10;;;13.20;97.20;;;;;;1727094;28;20343;-75
2022/04/23 06:24:20;;;;;;;15.10;13.88;;;13.20;97.20;;;;;;1727098;28;20638;-75
2022/04/23 06:25:12;;;;;;;15.00;13.60;;;13.20;97.20;;;;;;1726720;28;20224;-75
2022/04/23 06:26:03;;;;;;;15.25;13.77;;;13.20;97.20;;;;;;1727229;28;20220;-75
2022/04/23 06:26:55;;;;;;;13.80;12.60;;;13.20;97.20;;;;;;1727273;28;20207;-75
2022/04/23 06:27:45;;;;;;;14.15;12.85;;;13.20;97.20;;;;;;1727278;28;20203;-75
2022/04/23 06:28:37;;;;;;;14.70;13.50;;;13.20;97.20;;;;;;1726862;28;20675;-75
2022/04/23 06:29:28;;;;;;;15.35;13.95;;;13.30;97.20;;;;;;1726533;28;20255;-75
2022/04/23 06:30:19;;;;;;;14.70;13.50;;;13.30;97.20;;;;;;1727269;28;20644;-75
2022/04/23 06:31:10;;;;;;;14.65;13.45;;;13.30;97.20;;;;;;1727293;28;20193;-75
2022/04/23 06:32:02;;;;;;;14.27;13.07;;;13.30;97.20;;;;;;1727261;28;20197;-75
2022/04/23 06:32:54;;;;;;;14.50;13.30;;;13.30;97.20;;;;;;1727151;28;20194;-75
2022/04/23 06:33:46;;;;;;;14.07;12.88;;;13.30;97.20;;;;;;1727199;28;20192;-75
2022/04/23 06:34:37;;;;;;;15.15;13.90;;;13.30;97.20;;;;;;1727512;28;20232;-75
2022/04/23 06:35:28;;;;;;;15.18;13.88;;;13.30;97.20;;;;;;1726967;28;20192;-76
2022/04/23 06:36:20;;;;;;;14.77;13.48;;;13.30;97.20;;;;;;1727319;28;20204;-75
2022/04/23 06:37:12;;;;;;;14.48;13.30;;;13.30;97.20;;;;;;1727443;28;20679;-75
2022/04/23 06:38:03;;;;;;;14.02;12.93;;;13.40;97.20;;;;;;1727012;28;20204;-75
2022/04/23 06:38:54;;;;;;;14.20;13.00;;;13.40;97.20;;;;;;1727416;28;20201;-76
2022/04/23 06:39:45;;;;;;;13.65;12.55;;;13.40;97.20;;;;;;1727282;28;20192;-75
2022/04/23 06:40:37;;;;;;;14.53;13.33;;;13.40;97.20;;;;;;1727033;28;20670;-75
2022/04/23 06:41:28;;;;;;;13.50;12.40;;;13.40;97.20;;;;;;1727215;28;20200;-75
2022/04/23 06:42:19;;;;;;;15.27;13.87;;;13.40;97.20;;;;;;1727319;28;20195;-75
2022/04/23 06:43:10;;;;;;;13.95;12.88;;;13.40;97.20;;;;;;1727187;28;20227;-75
2022/04/23 06:44:02;;;;;;;13.63;12.53;;;13.40;97.20;;;;;;1728004;28;20206;-75
2022/04/23 06:44:53;;;;;;;14.30;13.07;;;13.40;97.20;;;;;;1727558;28;20656;-75
2022/04/23 06:45:44;;;;;;;13.47;12.37;;;13.40;97.20;;;;;;1728503;28;20575;-75
2022/04/23 06:46:35;;;;;;;13.52;12.43;;;13.40;97.20;;;;;;1728625;28;20204;-75
2022/04/23 06:47:27;;;;;;;14.40;13.20;;;13.40;97.20;;;;;;1728471;28;20196;-75
2022/04/23 06:48:19;;;;;;;14.00;12.90;;;13.40;97.20;;;;;;1728208;28;20571;-75
2022/04/23 06:49:11;;;;;;;13.52;12.48;;;13.40;97.20;;;;;;1728705;28;20227;-75
2022/04/23 06:50:02;;;;;;;13.20;12.00;;;13.40;97.20;;;;;;1728713;28;20590;-75
2022/04/23 06:50:53;;;;;;;12.30;11.30;;;13.40;97.20;;;;;;1728703;28;20561;-75
2022/04/23 06:51:44;;;;;;;12.20;11.20;;;13.50;97.20;;;;;;1728640;28;20471;-75
2022/04/23 06:52:37;;;;;;;13.90;12.80;;;13.50;97.20;;;;;;1728714;28;20197;-75
2022/04/23 06:53:27;;;;;;;13.95;12.85;;;13.50;97.20;;;;;;1728517;28;20258;-75
2022/04/23 06:54:19;;;;;;;13.73;12.53;;;13.50;97.20;;;;;;1728516;28;20247;-76
2022/04/23 06:55:11;;;;;;;13.63;12.43;;;13.50;97.20;;;;;;1726739;28;20193;-75
2022/04/23 06:56:03;;;;;;;13.13;12.13;;;13.50;97.20;;;;;;1727192;28;20228;-75
2022/04/23 06:56:54;;;;;;;12.90;11.80;;;13.50;97.20;;;;;;1725767;28;20193;-75
2022/04/23 06:57:45;;;;;;;13.30;12.13;;;13.50;97.20;;;;;;1725721;28;20716;-76
2022/04/23 06:58:37;;;;;;;14.50;13.20;;;13.50;97.20;;;;;;1726362;28;20582;-75
2022/04/23 06:59:27;;;;;;;13.25;12.15;;;13.50;97.20;;;;;;1724277;28;20747;-75
2022/04/23 07:00:22;;;;;;;12.00;11.00;;;13.60;97.20;;;;;;1727139;28;20629;-75
2022/04/23 07:01:12;;;;;;;12.60;11.50;;;13.60;97.20;;;;;;1725783;28;20208;-75
2022/04/23 07:02:05;;;;;;;12.67;11.60;;;13.60;97.20;;;;;;1725678;28;20224;-75
2022/04/23 07:02:56;;;;;;;13.65;12.45;;;13.60;97.20;;;;;;1724867;28;20211;-75
2022/04/23 07:03:49;;;;;;;12.43;11.43;;;13.60;97.20;;;;;;1725350;28;20228;-75
2022/04/23 07:04:40;;;;;;;12.45;11.38;;;13.60;97.20;;;;;;1725073;28;20634;-75
2022/04/23 07:05:31;;;;;;;12.10;11.20;;;13.60;97.20;;;;;;1725786;28;20216;-75
2022/04/23 07:06:22;;;;;;;12.75;11.65;;;13.60;97.20;;;;;;1725112;28;20443;-76
2022/04/23 07:07:14;;;;;;;12.53;11.33;;;13.70;97.20;;;;;;1724490;28;20239;-76
2022/04/23 07:08:05;;;;;;;11.73;10.82;;;13.70;97.20;;;;;;1725536;28;20228;-75
2022/04/23 07:08:57;;;;;;;12.05;11.15;;;13.70;97.20;;;;;;1725261;28;20587;-75
2022/04/23 07:09:49;;;;;;;11.75;10.75;;;13.70;97.20;;;;;;1724235;28;20255;-75
2022/04/23 07:10:39;;;;;;;11.65;10.75;;;13.70;97.20;;;;;;1725140;28;20809;-75
2022/04/23 07:11:31;;;;;;;11.90;10.90;;;13.70;97.20;;;;;;1723533;28;20616;-75
2022/04/23 07:12:22;;;;;;;12.30;11.30;;;13.70;97.20;;;;;;1726254;28;20192;-75
2022/04/23 07:13:14;;;;;;;12.43;11.23;;;13.80;97.20;;;;;;1727769;28;20230;-75
2022/04/23 07:14:06;;;;;;;12.02;11.02;;;13.80;97.20;;;;;;1727584;28;20576;-75
2022/04/23 07:14:58;;;;;;;11.57;10.68;;;13.80;97.20;;;;;;1725241;28;20226;-75
2022/04/23 07:15:49;;;;;;;11.50;10.50;;;13.90;97.20;;;;;;1725984;28;20196;-75
2022/04/23 07:16:41;;;;;;;11.57;10.57;;;13.90;97.20;;;;;;1725562;28;20203;-75
2022/04/23 07:17:32;;;;;;;12.32;11.32;;;13.90;97.20;;;;;;1725678;28;20448;-75
2022/04/23 07:18:23;;;;;;;11.50;10.50;;;13.90;97.20;;;;;;1725436;28;20280;-75
2022/04/23 07:19:16;;;;;;;11.90;10.85;;;14.00;97.20;;;;;;1724198;28;20196;-75
2022/04/23 07:20:08;;;;;;;11.55;10.65;;;14.00;97.20;;;;;;1726601;28;20236;-75
2022/04/23 07:20:59;;;;;;;12.07;11.18;;;14.10;97.20;;;;;;1725178;28;20860;-76
2022/04/23 07:21:51;;;;;;;12.33;11.40;;;14.10;97.20;;;;;;1724423;28;20564;-74
2022/04/23 07:24:02;;;;;;;12.48;11.35;;;14.10;97.20;;;;;;1725511;28;20607;-75
2022/04/23 07:24:03;;;;;;;11.73;10.75;;;14.20;97.20;;;;;;1728387;28;20228;-75
2022/04/23 07:24:54;;;;;;;11.88;10.93;;;14.20;97.20;;;;;;1728427;28;20207;-75
2022/04/23 07:25:45;;;;;;;12.35;11.15;;;14.20;97.20;;;;;;1727521;28;20203;-75
2022/04/23 07:26:38;;;;;;;11.23;10.33;;;14.20;97.20;;;;;;1728214;28;20231;-77
2022/04/23 07:27:30;;;;;;;11.50;10.60;;;14.30;97.20;;;;;;1728343;28;20200;-75
2022/04/23 07:28:21;;;;;;;11.27;10.38;;;14.30;97.20;;;;;;1727820;28;20224;-75
2022/04/23 07:29:13;;;;;;;10.90;9.90;;;14.30;97.20;;;;;;1728452;28;20196;-75
2022/04/23 07:30:06;;;;;;;12.52;11.52;;;14.30;97.20;;;;;;1728259;28;20228;-75
2022/04/23 07:30:57;;;;;;;12.40;11.50;;;14.40;97.20;;;;;;1728345;28;20205;-75
2022/04/23 07:31:49;;;;;;;12.20;11.20;;;14.40;97.20;;;;;;1728361;28;20207;-75
2022/04/23 07:32:40;;;;;;;11.50;10.60;;;14.40;97.20;;;;;;1728409;28;20239;-76
2022/04/23 07:38:13;;;;;;;11.50;10.40;;;14.70;97.20;;;;;;1726084;28;20255;-76
2022/04/23 07:39:03;;;;;;;11.73;10.82;;;14.80;97.20;;;;;;1724416;28;20204;-76
2022/04/23 07:39:57;;;;;;;11.27;10.27;;;14.80;97.20;;;;;;1726174;28;20201;-76
2022/04/23 07:40:50;;;;;;;12.20;11.15;;;14.90;97.20;;;;;;1727465;28;20200;-76
2022/04/23 07:41:41;;;;;;;11.60;10.70;;;14.90;97.20;;;;;;1725222;28;20200;-76
2022/04/23 07:42:33;;;;;;;11.60;10.70;;;14.90;97.20;;;;;;1727993;28;20196;-76
2022/04/23 07:43:24;;;;;;;11.40;10.50;;;15.00;97.20;;;;;;1727238;28;20699;-77
2022/04/23 07:44:15;;;;;;;12.03;11.00;;;15.00;97.20;;;;;;1728185;28;20670;-77
2022/04/23 07:45:09;;;;;;;11.93;10.93;;;15.00;97.20;;;;;;1727547;28;20235;-76
2022/04/23 07:46:01;;;;;;;12.20;11.18;;;15.10;97.20;;;;;;1728182;28;20793;-77
2022/04/23 07:46:52;;;;;;;11.88;10.93;;;15.10;97.20;;;;;;1729264;28;20207;-79
2022/04/23 07:47:44;;;;;;;11.98;10.98;;;15.10;97.20;;;;;;1728314;28;20232;-76
2022/04/23 07:48:35;;;;;;;10.48;9.65;;;15.10;97.20;;;;;;1726365;28;20228;-75
2022/04/23 07:49:27;;;;;;;11.47;10.57;;;15.10;97.20;;;;;;1728047;28;20204;-76
2022/04/23 07:50:19;;;;;;;11.50;10.55;;;15.10;97.20;;;;;;1728009;28;20315;-76
2022/04/23 07:51:10;;;;;;;11.00;10.10;;;15.10;97.20;;;;;;1728263;28;20204;-75
2022/04/23 07:52:01;;;;;;;11.02;10.13;;;15.10;97.20;;;;;;1728248;28;20200;-76
2022/04/23 07:52:53;;;;;;;10.43;9.63;;;15.10;97.20;;;;;;1728230;28;20192;-76
2022/04/23 07:53:43;;;;;;;11.25;10.35;;;15.10;97.20;;;;;;1728230;28;20225;-77
2022/04/23 07:54:38;;;;;;;11.30;10.40;;;15.10;97.20;;;;;;1728245;28;20189;-77
2022/04/23 07:55:30;;;;;;;11.10;10.20;;;15.20;97.20;;;;;;1727412;28;20197;-76
2022/04/23 07:56:21;;;;;;;11.52;10.52;;;15.20;97.20;;;;;;1728216;28;20220;-77
2022/04/23 07:57:13;;;;;;;10.95;10.00;;;15.20;97.20;;;;;;1728231;28;20251;-76
2022/04/23 07:58:05;;;;;;;11.35;10.45;;;15.20;97.20;;;;;;1727955;28;20656;-76
2022/04/23 07:58:56;;;;;;;10.77;9.93;;;15.20;97.20;;;;;;1728289;28;20583;-76
2022/04/23 07:59:47;;;;;;;11.00;10.10;;;15.30;97.20;;;;;;1728088;28;20648;-77
2022/04/23 08:00:40;;;;;;;10.80;10.00;;;15.30;97.20;;;;;;1727785;28;20200;-77
2022/04/23 08:01:32;;;;;;;12.23;11.10;;;15.30;97.20;;;;;;1728201;28;20210;-76
2022/04/23 08:02:23;;;;;;;11.27;10.38;;;15.30;97.20;;;;;;1728170;28;20303;-76
2022/04/23 08:03:15;;;;;;;11.77;10.87;;;15.30;97.20;;;;;;1728168;28;20274;-75
2022/04/23 08:04:07;;;;;;;11.52;10.63;;;15.30;97.20;;;;;;1728334;28;20201;-76
2022/04/23 08:04:58;;;;;;;10.88;10.07;;;15.40;97.20;;;;;;1728242;28;20215;-76
2022/04/23 08:05:51;;;;;;;10.60;9.80;;;15.40;97.20;;;;;;1728248;28;20204;-75
2022/04/23 08:06:43;;;;;;;10.93;10.02;;;15.40;97.20;;;;;;1728108;28;20204;-76
2022/04/23 08:07:34;;;;;;;11.68;10.77;;;15.40;97.20;;;;;;1728231;28;20204;-75
2022/04/23 08:08:26;;;;;;;11.67;10.67;;;15.40;97.20;;;;;;1728091;28;20204;-77
2022/04/23 08:09:17;;;;;;;11.65;10.75;;;15.50;97.20;;;;;;1728654;28;20205;-78
2022/04/23 08:10:10;;;;;;;11.57;10.67;;;15.50;97.20;;;;;;1728663;28;20227;-76
2022/04/23 08:11:01;;;;;;;12.25;11.25;;;15.60;97.20;;;;;;1728106;28;20757;-74
2022/04/23 08:11:53;;;;;;;11.40;10.50;;;15.60;97.20;;;;;;1728199;28;20610;-75
2022/04/23 08:12:44;;;;;;;11.30;10.40;;;15.60;97.20;;;;;;1728059;28;20312;-76
2022/04/23 08:13:36;;;;;;;11.57;10.40;;;15.60;97.20;;;;;;1728286;28;20208;-78
2022/04/23 08:14:28;;;;;;;11.65;10.65;;;15.70;97.20;;;;;;1728644;28;20266;-75
2022/04/23 08:15:18;;;;;;;11.48;10.38;;;15.70;97.20;;;;;;1729513;28;20223;-79
2022/04/23 08:16:10;;;;;;;11.10;10.20;;;15.70;97.20;;;;;;1729916;28;20659;-77
2022/04/23 08:17:01;;;;;;;10.73;9.82;;;15.80;97.20;;;;;;1728251;28;20204;-77
2022/04/23 08:17:53;;;;;;;12.23;11.20;;;15.80;97.20;;;;;;1728571;28;20231;-78
2022/04/23 08:18:44;;;;;;;10.98;10.07;;;15.80;97.20;;;;;;1729607;28;20918;-78
2022/04/23 08:19:37;;;;;;;12.23;11.23;;;15.80;97.20;;;;;;1729759;28;20254;-77
2022/04/23 08:20:30;;;;;;;12.05;11.05;;;15.80;97.20;;;;;;1730212;28;20200;-78
2022/04/23 08:21:23;;;;;;;12.35;11.25;;;15.80;97.20;;;;;;1730752;28;20211;-79
2022/04/23 08:22:14;;;;;;;11.80;10.80;;;15.80;97.20;;;;;;1730267;28;20691;-78
2022/04/23 08:23:06;;;;;;;11.93;10.93;;;15.80;97.20;;;;;;1729048;28;20704;-78
2022/04/23 08:23:57;;;;;;;12.00;10.98;;;15.90;97.20;;;;;;1728565;28;20239;-76
2022/04/23 08:24:48;;;;;;;12.07;11.07;;;15.90;97.20;;;;;;1728072;28;20233;-75
2022/04/23 08:25:40;;;;;;;11.93;11.03;;;16.00;97.20;;;;;;1728146;28;20200;-75
2022/04/23 08:26:30;;;;;;;12.93;11.82;;;16.00;97.20;;;;;;1728051;28;20296;-77
2022/04/23 08:27:22;;;;;;;12.30;11.10;;;16.00;97.20;;;;;;1728056;28;20247;-76
2022/04/23 08:30:34;;;;;;;12.00;10.90;;;16.00;97.20;;;;;;1725985;28;20705;-77
2022/04/23 08:31:26;;;;;;;12.13;11.13;;;16.10;97.20;;;;;;1727738;28;20544;-76
2022/04/23 08:32:16;;;;;;;12.70;11.68;;;16.20;97.20;;;;;;1727268;28;20227;-76
2022/04/23 08:33:08;;;;;;;11.60;10.60;;;16.30;97.20;;;;;;1727560;28;20224;-76
2022/04/23 08:34:00;;;;;;;11.38;10.57;;;16.40;97.20;;;;;;1727463;28;20254;-76
2022/04/23 08:34:53;;;;;;;12.00;11.00;;;16.40;97.20;;;;;;1727559;28;20196;-78
2022/04/23 08:35:43;;;;;;;11.98;10.98;;;16.50;97.20;;;;;;1727544;28;20672;-77
2022/04/23 08:36:36;;;;;;;12.43;11.33;;;16.50;97.20;;;;;;1727019;28;20674;-74
2022/04/23 08:37:27;;;;;;;11.50;10.50;;;16.50;97.20;;;;;;1725452;28;20205;-76
2022/04/23 08:38:19;;;;;;;12.30;11.30;;;16.60;97.20;;;;;;1722440;28;20291;-75
2022/04/23 08:39:10;;;;;;;13.15;12.05;;;16.60;97.20;;;;;;1722512;28;20236;-75
2022/04/23 08:40:01;;;;;;;12.00;10.80;;;16.60;97.20;;;;;;1721845;28;20196;-75
2022/04/23 08:40:52;;;;;;;12.00;11.00;;;16.60;97.20;;;;;;1723219;28;20489;-76
2022/04/23 08:41:46;;;;;;;11.83;10.83;;;16.60;97.20;;;;;;1723288;28;20197;-75
2022/04/23 08:42:38;;;;;;;12.70;11.40;;;16.50;97.20;;;;;;1722692;28;20737;-76
2022/04/23 08:43:30;;;;;;;11.77;10.57;;;16.50;97.20;;;;;;1722576;28;20225;-75
2022/04/23 08:44:21;;;;;;;12.48;11.38;;;16.50;97.20;;;;;;1721982;28;20556;-75
2022/04/23 08:45:13;;;;;;;12.13;11.07;;;16.40;97.20;;;;;;1725346;28;20240;-76
2022/04/23 08:46:04;;;;;;;12.70;11.60;;;16.40;97.20;;;;;;1722201;28;20212;-76
2022/04/23 08:46:56;;;;;;;13.87;11.10;;;16.40;97.20;;;;;;1722505;28;20199;-76
2022/04/23 08:47:47;;;;;;;10.80;9.85;;;16.30;97.20;;;;;;1723994;28;20215;-76
2022/04/23 08:48:40;;;;;;;11.37;10.37;;;16.30;97.20;;;;;;1722052;28;20205;-75
2022/04/23 08:49:32;;;;;;;12.70;11.60;;;16.30;97.20;;;;;;1723977;28;20205;-75
2022/04/23 08:50:26;;;;;;;11.80;10.75;;;16.30;97.20;;;;;;1723606;28;20221;-76
2022/04/23 08:51:21;;;;;;;11.93;10.93;;;16.30;97.20;;;;;;1722746;28;20700;-75
2022/04/23 08:52:17;;;;;;;11.95;10.95;;;16.20;97.20;;;;;;1721599;28;20201;-76
2022/04/23 08:53:13;;;;;;;11.88;10.93;;;16.20;97.20;;;;;;1722212;28;20223;-76
2022/04/23 08:54:07;;;;;;;11.30;10.23;;;16.20;97.20;;;;;;1722676;28;20596;-75
2022/04/23 08:54:59;;;;;;;12.02;11.02;;;16.20;97.20;;;;;;1722157;28;20224;-75
2022/04/23 08:55:51;;;;;;;21.05;18.83;;;16.20;97.20;;;;;;1723261;28;20222;-76
2022/04/23 08:56:44;;;;;;;24.02;22.05;;;16.20;97.20;;;;;;1722940;28;20216;-75
2022/04/23 08:57:36;;;;;;;15.80;14.10;;;16.30;97.20;;;;;;1723760;28;20256;-76
2022/04/23 08:58:28;;;;;;;12.82;11.77;;;16.30;97.20;;;;;;1722136;28;20227;-75
2022/04/23 08:59:20;;;;;;;11.95;10.95;;;16.30;97.20;;;;;;1722724;28;20197;-76
2022/04/23 09:00:14;;;;;;;12.63;11.52;;;16.40;97.20;;;;;;1722335;28;20797;-76
2022/04/23 09:01:05;;;;;;;12.43;11.32;;;16.50;97.20;;;;;;1722618;28;20214;-75
2022/04/23 09:01:57;;;;;;;12.90;11.70;;;16.50;97.20;;;;;;1723939;28;20215;-75
2022/04/23 09:02:47;;;;;;;12.88;11.48;;;16.60;97.20;;;;;;1722668;28;20208;-75
2022/04/23 09:03:39;;;;;;;12.97;11.87;;;16.70;97.20;;;;;;1723922;28;20192;-76
2022/04/23 09:04:30;;;;;;;11.80;10.80;;;16.80;97.20;;;;;;1722579;28;20197;-76
2022/04/23 09:05:25;;;;;;;11.63;10.63;;;16.80;97.20;;;;;;1722859;28;20205;-75
2022/04/23 09:06:16;;;;;;;12.05;10.95;;;17.00;97.20;;;;;;1722679;28;21061;-76
2022/04/23 09:07:19;;;;;;;12.53;11.43;;;17.00;97.20;;;;;;1723159;28;20237;-76
2022/04/23 09:08:10;;;;;;;12.30;11.20;;;17.10;97.20;;;;;;1722042;28;20240;-76
2022/04/23 09:09:07;;;;;;;11.13;10.13;;;17.20;97.20;;;;;;1721738;28;20193;-76
2022/04/23 09:09:58;;;;;;;10.82;9.93;;;17.20;97.20;;;;;;1722860;28;20210;-76
2022/04/23 09:10:51;;;;;;;12.57;11.48;;;17.30;97.20;;;;;;1723468;28;20217;-76
2022/04/23 09:11:44;;;;;;;11.52;10.52;;;17.30;97.20;;;;;;1723503;28;20580;-76
2022/04/23 09:12:54;;;;;;;11.93;10.48;;;17.30;97.20;;;;;;1722663;28;20665;-76
2022/04/23 09:13:45;;;;;;;11.27;10.27;;;17.40;97.20;;;;;;1721790;28;20544;-76
2022/04/23 09:14:37;;;;;;;11.83;10.70;;;17.40;97.20;;;;;;1722163;28;20205;-76
2022/04/23 09:24:07;;;;;;;12.52;11.43;;;17.10;97.20;;;;;;1691872;28;20327;-76
2022/04/23 09:24:58;;;;;;;11.93;10.90;;;17.00;97.20;;;;;;1708892;28;20202;-76
2022/04/23 09:25:50;;;;;;;12.50;11.40;;;16.90;97.20;;;;;;1708559;28;20273;-75
2022/04/23 09:26:41;;;;;;;12.63;11.52;;;16.90;97.20;;;;;;1707242;28;20298;-75
2022/04/23 09:27:34;;;;;;;11.10;10.20;;;16.80;97.20;;;;;;1709316;28;20198;-76
2022/04/23 09:28:29;;;;;;;10.95;9.95;;;16.70;97.20;;;;;;1707241;28;20326;-75
2022/04/23 09:29:21;;;;;;;12.60;11.48;;;16.70;97.20;;;;;;1708821;28;20205;-76
2022/04/23 09:30:14;;;;;;;11.73;10.73;;;16.70;97.20;;;;;;1723294;28;20211;-76
2022/04/23 09:31:12;;;;;;;12.40;11.27;;;16.70;97.20;;;;;;1723092;28;20225;-76
2022/04/23 09:32:12;;;;;;;11.80;10.77;;;16.60;97.20;;;;;;1722102;28;20215;-76
2022/04/23 09:33:04;;;;;;;11.65;10.65;;;16.60;97.20;;;;;;1723883;28;20221;-76
2022/04/23 09:33:55;;;;;;;12.20;10.80;;;16.60;97.20;;;;;;1723084;28;20692;-75
2022/04/23 09:34:46;;;;;;;12.30;11.07;;;16.60;97.20;;;;;;1722540;28;20711;-76
2022/04/23 09:35:51;;;;;;;12.07;11.05;;;16.60;97.20;;;;;;1723304;28;20233;-76
2022/04/23 09:36:49;;;;;;;12.82;11.55;;;16.50;97.20;;;;;;1723633;28;20661;-77
2022/04/23 09:39:03;;;;;;;11.38;10.38;;;16.50;97.20;;;;;;1721515;28;20207;-75
2022/04/23 09:39:53;;;;;;;12.32;11.23;;;16.50;97.20;;;;;;1722251;28;20545;-75
2022/04/23 09:40:50;;;;;;;12.07;10.97;;;16.50;97.20;;;;;;1723389;28;20200;-74